Tiempo atmosférico en la estación meteorológica de Montalbán, Dga, Teruel (885 m.)



Fecha
DESCASC
Temp. máxima en grados centígrados (hora)
DESCASC
Temp. mínima en grados centígrados (hora)
DESCASC
Temp. media en grados centígrados
DESCASC
Racha de viento máxima en m/sg (hora)
DESCASC
Velocidad máxima media en intervalos de 10 minutos(hora)
DESCASC
Precipitaciones diarias en mm
DESCASC
Precipitaciones de 00:00 a 06:00 en mm
DESCASC
Precipitaciones de 06:00 a 12:00 en mm
DESCASC
Precipitaciones de 12:00 a 18:00 en mm
DESCASC
Precipitaciones de 18:00 a 24:00 en mm
DESCASC

Gráficas

Temp. máximas Temp. mínimas Temp. medias Precipitaciones Rachas de viento máximas Velocidades máximas media en intervalos de 10 minutos

Datos horarios

Fecha y hora oficial Temperatura (ºC) Velocidad del viento (km/h) Dirección del viento Racha (km/h) Dirección de racha Precipitación (mm) Presión (hPa) Tendencia (hPa) Humedad (%)
2020-01-17 23:00:00 1.6 0 Calma 5 Noroeste 0 -- -- 77
2020-01-17 22:00:00 2.9 0 Calma 8 Este 0 -- -- 75
2020-01-17 21:00:00 4.1 3 Sudeste 13 Noroeste 0 -- -- 71
2020-01-17 20:00:00 5.6 3 Sudeste 13 Noroeste 0 -- -- 63
2020-01-17 19:00:00 6.7 5 Noroeste 12 Norte 0 -- -- 62
2020-01-17 18:00:00 7.8 3 Sur 22 Noroeste 0 -- -- 58
2020-01-17 17:00:00 8.9 9 Noroeste 27 Noroeste 0 -- -- 57
2020-01-17 16:00:00 9.3 11 Noroeste 28 Noroeste 0 -- -- 61
2020-01-17 15:00:00 9 9 Noroeste 28 Noroeste 0 -- -- 67
2020-01-17 14:00:00 8.9 10 Oeste 31 Noroeste 0 -- -- 67
2020-01-17 13:00:00 9.4 14 Oeste 32 Oeste 0 -- -- 59
2020-01-17 12:00:00 8.8 6 Noroeste 23 Oeste 0 -- -- 61
2020-01-17 11:00:00 8.7 8 Oeste 21 Oeste 0 -- -- 61
2020-01-17 10:00:00 6.8 4 Oeste 21 Sudoeste 0 -- -- 67
2020-01-17 09:00:00 6.9 9 Oeste 31 Oeste 0 -- -- 66
2020-01-17 08:00:00 7.3 11 Oeste 30 Oeste 0 -- -- 63
2020-01-17 07:00:00 7.4 5 Sur 13 Sudoeste 0 -- -- 60
2020-01-17 06:00:00 7.6 2 Norte 8 Norte 0 -- -- 57
2020-01-17 05:00:00 8 3 Noroeste 24 Sudoeste 0 -- -- 55
2020-01-17 04:00:00 9 5 Sudoeste 27 Sudoeste 0 -- -- 52
2020-01-17 03:00:00 9.5 8 Sudoeste 26 Sudoeste 0 -- -- 51
2020-01-17 02:00:00 9.5 7 Sudoeste 17 Oeste 0 -- -- 51
2020-01-17 01:00:00 9.4 8 Sur 40 Sudeste 0 -- -- 52
2020-01-17 00:00:00 9.2 10 Sudeste 29 Oeste 0 -- -- 53
2020-01-16 23:00:00 5.6 4 Sur 10 Sur 0 -- -- 77
2020-01-16 22:00:00 3.7 2 Sudeste 7 Nordeste 0 -- -- 80
2020-01-16 21:00:00 4.9 3 Norte 7 Noroeste 0 -- -- 77
2020-01-16 20:00:00 6.5 0 Calma 10 Noroeste 0 -- -- 73
2020-01-16 19:00:00 8.8 0 Calma 12 Sudeste 0 -- -- 66
2020-01-16 18:00:00 11.1 4 Sudeste 9 Sudeste 0 -- -- 59
2020-01-16 17:00:00 13.3 5 Sur 12 Sur 0 -- -- 51
2020-01-16 16:00:00 13.8 4 Sudoeste 15 Noroeste 0 -- -- 53
2020-01-16 15:00:00 13.2 4 Sur 17 Oeste 0 -- -- 54
2020-01-16 14:00:00 13.4 6 Oeste 20 Sur 0 -- -- 54
2020-01-16 13:00:00 12 13 Oeste 26 Oeste 0 -- -- 58
2020-01-16 12:00:00 9.8 3 Sudoeste 11 Sudoeste 0 -- -- 70
2020-01-16 11:00:00 7.3 2 Oeste 5 Oeste 0 -- -- 79
2020-01-16 10:00:00 2.9 0 Calma 6 Este 0 -- -- 90
2020-01-16 09:00:00 2.1 2 Noroeste 9 Sudeste 0 -- -- 90
2020-01-16 08:00:00 1.7 3 Este 10 Sudoeste 0 -- -- 91
2020-01-16 07:00:00 1.2 0 Calma 7 Norte 0 -- -- 91
2020-01-16 06:00:00 2 0 Calma 5 Este 0 -- -- 91
2020-01-16 05:00:00 2.2 0 Calma 6 Noroeste 0 -- -- 90
2020-01-16 04:00:00 2.7 2 Este 6 Sudoeste 0 -- -- 89
2020-01-16 03:00:00 3.3 0 Calma 8 Sudeste 0 -- -- 87
2020-01-16 02:00:00 3.5 2 Nordeste 10 Sudoeste 0 -- -- 89
2020-01-16 01:00:00 3.8 5 Noroeste 12 Noroeste 0 -- -- 86
2020-01-16 00:00:00 4.5 3 Norte 8 Noroeste 0 -- -- 84
2020-01-15 23:00:00 5.2 3 Norte 8 Oeste 0 -- -- 81
2020-01-15 22:00:00 6.4 0 Calma 9 Noroeste 0 -- -- 76
2020-01-15 21:00:00 6.5 4 Noroeste 9 Noroeste 0 -- -- 75
2020-01-15 20:00:00 7.6 2 Noroeste 8 Oeste 0 -- -- 69
2020-01-15 19:00:00 9.3 0 Calma 10 Noroeste 0 -- -- 63
2020-01-15 18:00:00 10.4 3 Noroeste 15 Norte 0 -- -- 61
2020-01-15 17:00:00 12.2 6 Noroeste 29 Sudoeste 0 -- -- 54
2020-01-15 16:00:00 13 13 Oeste 29 Sudoeste 0 -- -- 49
2020-01-15 15:00:00 12 11 Noroeste 34 Noroeste 0 -- -- 49
2020-01-15 14:00:00 11.4 10 Oeste 26 Oeste 0 -- -- 48
2020-01-15 13:00:00 10.1 10 Oeste 23 Oeste 0 -- -- 50
2020-01-15 12:00:00 9.2 11 Oeste 28 Oeste 0 -- -- 52
2020-01-15 11:00:00 8 6 Oeste 18 Oeste 0 -- -- 60
2020-01-15 10:00:00 3.8 3 Noroeste 12 Norte 0 -- -- 74
2020-01-15 09:00:00 2.4 3 Norte 13 Norte 0 -- -- 79
2020-01-15 08:00:00 2.1 2 Este 8 Norte 0 -- -- 80
2020-01-15 07:00:00 2 3 Norte 7 Norte 0 -- -- 79
2020-01-15 06:00:00 1.1 3 Noroeste 9 Oeste 0 -- -- 83
2020-01-15 05:00:00 0.5 2 Norte 11 Oeste 0 -- -- 82
2020-01-15 04:00:00 -0.2 4 Noroeste 18 Noroeste 0 -- -- 79
2020-01-15 03:00:00 -0.5 5 Oeste 12 Noroeste 0 -- -- 76
2020-01-15 02:00:00 -1.2 0 Calma 6 Noroeste 0 -- -- 72
2020-01-15 01:00:00 -1.1 3 Sudeste 6 Sudeste 0 -- -- 73
2020-01-15 00:00:00 -0.9 2 Sudeste 6 Este 0 -- -- 73
2020-01-14 23:00:00 -0.4 0 Calma 6 Sudoeste 0 -- -- 71
2020-01-14 22:00:00 0.6 0 Calma 4 Oeste 0 -- -- 66
2020-01-14 21:00:00 2 0 Calma 4 Sudoeste 0 -- -- 63
2020-01-14 20:00:00 3.1 0 Calma 4 Norte 0 -- -- 59
2020-01-14 19:00:00 5.6 0 Calma 11 Este 0 -- -- 51
2020-01-14 18:00:00 8.6 3 Este 12 Nordeste 0 -- -- 44
2020-01-14 17:00:00 11.2 3 Sudeste 14 Sudeste 0 -- -- 37
2020-01-14 16:00:00 13.5 5 Norte 14 Nordeste 0 -- -- 33
2020-01-14 15:00:00 14.7 5 Oeste 9 Oeste 0 -- -- 26
2020-01-14 14:00:00 12.3 3 Sudoeste 11 Oeste 0 -- -- 30
2020-01-14 13:00:00 9.6 3 Oeste 8 Noroeste 0 -- -- 39
2020-01-14 12:00:00 7.2 4 Sudoeste 8 Noroeste 0 -- -- 46
2020-01-14 11:00:00 6.2 3 Sur 8 Sudeste 0 -- -- 49
2020-01-14 10:00:00 1.7 4 Este 9 Sudeste 0 -- -- 65
2020-01-14 09:00:00 0.5 0 Calma 6 Este 0 -- -- 69
2020-01-14 08:00:00 0.9 3 Sudeste 7 Sudeste 0 -- -- 65
2020-01-14 07:00:00 2 4 Sudoeste 14 Oeste 0 -- -- 62
2020-01-14 06:00:00 1.6 2 Noroeste 8 Noroeste 0 -- -- 60
2020-01-14 05:00:00 1.6 3 Noroeste 8 Sudeste 0 -- -- 57
2020-01-14 04:00:00 1 3 Sudeste 7 Sudeste 0 -- -- 51
2020-01-14 03:00:00 1.6 0 Calma 8 Sudeste 0 -- -- 46
2020-01-14 02:00:00 2.4 2 Norte 9 Sudeste 0 -- -- 41
2020-01-14 01:00:00 1.3 3 Sudeste 8 Este 0 -- -- 49
2020-01-14 00:00:00 0.8 2 Este 8 Sudeste 0 -- -- 50
2020-01-13 23:00:00 2.1 4 Sudeste 8 Sudeste 0 -- -- 47
2020-01-13 22:00:00 1.9 0 Calma 9 Sudeste 0 -- -- 51
2020-01-13 21:00:00 3.8 2 Sudeste 6 Sudeste 0 -- -- 46
2020-01-13 20:00:00 5.6 2 Sudeste 4 Sudeste 0 -- -- 42
2020-01-13 19:00:00 7.7 0 Calma 5 Noroeste 0 -- -- 36
2020-01-13 18:00:00 9.4 2 Norte 12 Sudoeste 0 -- -- 32
2020-01-13 17:00:00 10.8 3 Sudeste 16 Oeste 0 -- -- 29
2020-01-13 16:00:00 12.4 6 Oeste 17 Oeste 0 -- -- 25
2020-01-13 15:00:00 13.8 6 Noroeste 15 Sudoeste 0 -- -- 24
2020-01-13 14:00:00 12.6 6 Oeste 13 Sudoeste 0 -- -- 29
2020-01-13 13:00:00 9.9 3 Sudoeste 8 Oeste 0 -- -- 34
2020-01-13 12:00:00 7.5 3 Sur 9 Sudeste 0 -- -- 34
2020-01-13 11:00:00 3 0 Calma 5 Sudoeste 0 -- -- 47
2020-01-13 10:00:00 -1.8 0 Calma 8 Sudeste 0 -- -- 59
2020-01-13 09:00:00 -3 3 Sudeste 8 Sur 0 -- -- 62
2020-01-13 08:00:00 -3.2 2 Este 6 Sudeste 0 -- -- 63
2020-01-13 07:00:00 -3 3 Sur 6 Sur 0 -- -- 63
2020-01-13 06:00:00 -3.2 4 Sudeste 8 Sudeste 0 -- -- 65
2020-01-13 05:00:00 -3.3 3 Sur 6 Sudeste 0 -- -- 66
2020-01-13 04:00:00 -3.2 3 Sudeste 7 Sudeste 0 -- -- 65
2020-01-13 03:00:00 -3.6 3 Sudeste 5 Sudeste 0 -- -- 67
2020-01-13 02:00:00 -3.4 3 Sudeste 6 Sudeste 0 -- -- 64
2020-01-13 01:00:00 -4 0 Calma 4 Sur 0 -- -- 66
2020-01-13 00:00:00 -2.6 0 Calma 4 Sudoeste 0 -- -- 60
2020-01-12 23:00:00 -1.9 2 Sudeste 5 Sudeste 0 -- -- 58
2020-01-12 22:00:00 -1.5 0 Calma 4 Noroeste 0 -- -- 56
2020-01-12 21:00:00 -0.1 0 Calma 7 Noroeste 0 -- -- 52
2020-01-12 20:00:00 1.6 2 Nordeste 6 Norte 0 -- -- 47
2020-01-12 19:00:00 3.6 0 Calma 9 Nordeste 0 -- -- 39
2020-01-12 18:00:00 6.5 0 Calma 5 Sudeste 0 -- -- 34
2020-01-12 17:00:00 9 0 Calma 19 Oeste 0 -- -- 29
2020-01-12 16:00:00 10.7 10 Noroeste 20 Noroeste 0 -- -- 24
2020-01-12 15:00:00 10.6 7 Oeste 17 Oeste 0 -- -- 23
2020-01-12 14:00:00 9.6 4 Oeste 9 Oeste 0 -- -- 29
2020-01-12 13:00:00 7.5 3 Oeste 10 Oeste 0 -- -- 36
2020-01-12 12:00:00 5.1 3 Sudoeste 9 Oeste 0 -- -- 43
2020-01-12 11:00:00 2.6 0 Calma 6 Sudeste 0 -- -- 52
2020-01-12 10:00:00 -2.3 3 Sudeste 7 Sudoeste 0 -- -- 68
2020-01-12 09:00:00 -3.1 3 Sudeste 7 Sudeste 0 -- -- 71
2020-01-12 08:00:00 -2.4 2 Sudeste 6 Sudeste 0 -- -- 68
2020-01-12 07:00:00 -2.9 4 Sudeste 7 Este 0 -- -- 69
2020-01-12 06:00:00 -2.6 3 Sudeste 6 Oeste 0 -- -- 68
2020-01-12 05:00:00 -2.6 3 Sudeste 6 Sudeste 0 -- -- 69
2020-01-12 04:00:00 -2.1 2 Sur 6 Sudeste 0 -- -- 70
2020-01-12 03:00:00 -2.2 2 Sudeste 5 Sur 0 -- -- 74
2020-01-12 02:00:00 -2.1 0 Calma 6 Sudeste 0 -- -- 76
2020-01-12 01:00:00 -2.1 3 Sudeste 5 Sudeste 0 -- -- 75
2020-01-12 00:00:00 -2 2 Sudeste 4 Sudeste 0 -- -- 76
2020-01-11 23:00:00 -2 0 Calma 3 Sudeste 0 -- -- 77
2020-01-11 22:00:00 -1 0 Calma 4 Este 0 -- -- 72
2020-01-11 21:00:00 0.4 0 Calma 4 Oeste 0 -- -- 67
2020-01-11 20:00:00 2 0 Calma 3 Sudeste 0 -- -- 59
2020-01-11 19:00:00 4.2 0 Calma 4 Sur 0 -- -- 52
2020-01-11 18:00:00 6.4 2 Noroeste 8 Sudoeste 0 -- -- 47
2020-01-11 17:00:00 8.9 2 Oeste 10 Sudoeste 0 -- -- 41
2020-01-11 16:00:00 9.8 7 Sudoeste 12 Oeste 0 -- -- 44
2020-01-11 15:00:00 10.1 5 Sudoeste 12 Sudoeste 0 -- -- 48
2020-01-11 14:00:00 7.7 5 Sudoeste 11 Oeste 0 -- -- 58
2020-01-11 13:00:00 5.6 4 Sudoeste 12 Sudoeste 0 -- -- 63
2020-01-11 12:00:00 2.7 2 Oeste 6 Noroeste 0 -- -- 79
2020-01-11 11:00:00 0.8 0 Calma 4 Sur 0 -- -- 87
2020-01-11 10:00:00 -3.3 0 Calma 5 Sudeste 0 -- -- 93
2020-01-11 09:00:00 -3.6 0 Calma 4 Sudeste 0 -- -- 93
2020-01-11 08:00:00 -3.7 0 Calma 3 Noroeste 0 -- -- 92
2020-01-11 07:00:00 -2.8 0 Calma 4 Este 0 -- -- 93
2020-01-11 06:00:00 -2.2 0 Calma 4 Noroeste 0 -- -- 93
2020-01-11 05:00:00 -1.4 0 Calma 4 Sudeste 0 -- -- 92
2020-01-11 04:00:00 -0.6 0 Calma 4 Noroeste 0 -- -- 92
2020-01-11 03:00:00 0.4 0 Calma 4 Noroeste 0 -- -- 88
2020-01-11 02:00:00 1.4 0 Calma 6 Este 0 -- -- 86
2020-01-11 01:00:00 0.8 2 Sudeste 5 Sudoeste 0 -- -- 88
2020-01-11 00:00:00 1.3 3 Norte 10 Nordeste 0 -- -- 85
2020-01-10 23:00:00 3 0 Calma 10 Noroeste 0 -- -- 82
2020-01-10 22:00:00 3.8 2 Oeste 25 Noroeste 0 -- -- 80
2020-01-10 21:00:00 4.3 15 Noroeste 32 Noroeste 0 -- -- 79
2020-01-10 20:00:00 4.4 13 Noroeste 33 Noroeste 0 -- -- 78
2020-01-10 19:00:00 5.1 11 Noroeste 33 Noroeste 0 -- -- 77
2020-01-10 18:00:00 5.4 15 Noroeste 28 Noroeste 0 -- -- 76
2020-01-10 17:00:00 5.5 17 Noroeste 36 Oeste 0 -- -- 74
2020-01-10 16:00:00 5.6 13 Noroeste 34 Noroeste 0 -- -- 72
2020-01-10 15:00:00 5.6 19 Noroeste 39 Noroeste 0 -- -- 71
2020-01-10 14:00:00 5.6 17 Noroeste 36 Noroeste 0 -- -- 70
2020-01-10 13:00:00 5.4 12 Noroeste 42 Noroeste 0 -- -- 71
2020-01-10 12:00:00 5.3 21 Noroeste 39 Noroeste 0 -- -- 67
2020-01-10 11:00:00 4.6 13 Noroeste 42 Noroeste 0 -- -- 73
2020-01-10 10:00:00 4.1 9 Noroeste 37 Oeste 0 -- -- 75
2020-01-10 09:00:00 4 5 Oeste 18 Noroeste 0 -- -- 75
2020-01-10 08:00:00 4.5 9 Noroeste 31 Noroeste 0 -- -- 74
2020-01-10 07:00:00 4.7 6 Noroeste 23 Noroeste 0 -- -- 77
2020-01-10 06:00:00 4.5 3 Sur 14 Noroeste 0 -- -- 80
2020-01-10 05:00:00 4.5 6 Noroeste 21 Noroeste 0 -- -- 81
2020-01-10 04:00:00 4.6 3 Sudeste 44 Noroeste 0 -- -- 85
2020-01-10 03:00:00 4.1 4 Norte 12 Norte 0 -- -- 83
2020-01-10 02:00:00 4.4 0 Calma 8 Noroeste 0 -- -- 80
2020-01-10 01:00:00 2.9 2 Sur 8 Sudeste 0 -- -- 81
2020-01-10 00:00:00 3.6 0 Calma 4 Sudeste 0 -- -- 76
2020-01-09 23:00:00 4.5 2 Sudeste 6 Nordeste 0 -- -- 71
2020-01-09 22:00:00 5.3 5 Sudeste 11 Sudeste 0 -- -- 70
2020-01-09 21:00:00 5.2 2 Este 6 Noroeste 0 -- -- 67
2020-01-09 20:00:00 6.5 0 Calma 4 Sudeste 0 -- -- 55
2020-01-09 19:00:00 9.1 2 Este 5 Sudeste 0 -- -- 48
2020-01-09 18:00:00 11.6 0 Calma 8 Este 0 -- -- 41
2020-01-09 17:00:00 13.6 3 Sur 11 Sudeste 0 -- -- 38
2020-01-09 16:00:00 15.6 4 Sur 12 Sur 0 -- -- 35
2020-01-09 15:00:00 15.2 5 Sudoeste 15 Oeste 0 -- -- 36
2020-01-09 14:00:00 13.8 6 Oeste 14 Oeste 0 -- -- 38
2020-01-09 13:00:00 10.4 3 Oeste 6 Oeste 0 -- -- 50
2020-01-09 12:00:00 7.7 2 Sudoeste 6 Sudoeste 0 -- -- 65
2020-01-09 11:00:00 4.3 0 Calma 6 Sudeste 0 -- -- 85
2020-01-09 10:00:00 1 3 Este 8 Nordeste 0 -- -- 90
2020-01-09 09:00:00 0.3 0 Calma 4 Sudeste 0 -- -- 93
2020-01-09 08:00:00 0.5 3 Sudeste 6 Sudeste 0 -- -- 94
2020-01-09 07:00:00 0.6 0 Calma 4 Sudeste 0 -- -- 95
2020-01-09 06:00:00 0.7 0 Calma 4 Sudeste 0 -- -- 94
2020-01-09 05:00:00 0.8 0 Calma 4 Sudeste 0 -- -- 94
2020-01-09 04:00:00 1.3 0 Calma 6 Sudeste 0 -- -- 94
2020-01-09 03:00:00 1 0 Calma 3 Sudeste 0 -- -- 95
2020-01-09 02:00:00 1.1 0 Calma 4 Sudeste 0 -- -- 94
2020-01-09 01:00:00 1.4 0 Calma 4 Noroeste 0 -- -- 93
2020-01-09 00:00:00 2 0 Calma 3 Sudeste 0 -- -- 92
2020-01-08 23:00:00 2.5 0 Calma 3 Noroeste 0 -- -- 90
2020-01-08 22:00:00 3.6 0 Calma 6 Sur 0 -- -- 90
2020-01-08 21:00:00 5 0 Calma 4 Sur 0 -- -- 86
2020-01-08 20:00:00 6.8 0 Calma 6 Norte 0 -- -- 80
2020-01-08 19:00:00 8.5 0 Calma 5 Este 0 -- -- 76
2020-01-08 18:00:00 9.9 0 Calma 10 Sudeste 0 -- -- 73
2020-01-08 17:00:00 12 0 Calma 11 Noroeste 0 -- -- 65
2020-01-08 16:00:00 14.1 3 Sudoeste 10 Noroeste 0 -- -- 58
2020-01-08 15:00:00 13.7 5 Norte 15 Nordeste 0 -- -- 60
2020-01-08 14:00:00 12.4 4 Noroeste 8 Norte 0 -- -- 63
2020-01-08 13:00:00 10.5 4 Noroeste 6 Oeste 0 -- -- 70
2020-01-08 12:00:00 7 0 Calma 4 Oeste 0 -- -- 63
2020-01-08 11:00:00 4.7 0 Calma 4 Sudeste 0 -- -- 66
2020-01-08 10:00:00 3 0 Calma 5 Oeste 0 -- -- 69
2020-01-08 09:00:00 2 0 Calma 5 Sur 0 -- -- 72
2020-01-08 08:00:00 1.4 0 Calma 4 Oeste 0 -- -- 71
2020-01-08 07:00:00 1.6 2 Sudeste 5 Sudeste 0 -- -- 70
2020-01-08 06:00:00 0.8 0 Calma 5 Sudeste 0 -- -- 72
2020-01-08 05:00:00 1.3 2 Sur 5 Sudeste 0 -- -- 69
2020-01-08 04:00:00 1.3 2 Sudeste 5 Sudeste 0 -- -- 69
2020-01-08 03:00:00 0.1 0 Calma 3 Sur 0 -- -- 72
2020-01-08 02:00:00 0.4 2 Sur 4 Sudeste 0 -- -- 69
2020-01-08 01:00:00 0.8 0 Calma 3 Oeste 0 -- -- 66
2020-01-08 00:00:00 1.5 0 Calma 6 Sudeste 0 -- -- 62
2020-01-07 23:00:00 2.3 0 Calma 6 Sudeste 0 -- -- 58
2020-01-07 22:00:00 3.2 0 Calma 5 Sudoeste 0 -- -- 54
2020-01-07 21:00:00 4.4 0 Calma 3 Este 0 -- -- 51
2020-01-07 20:00:00 6.1 0 Calma 4 Nordeste 0 -- -- 47
2020-01-07 19:00:00 8 4 Sudeste 9 Sudeste 0 -- -- 40
2020-01-07 18:00:00 11.4 0 Calma 3 Norte 0 -- -- 35
2020-01-07 17:00:00 13.3 0 Calma 11 Sudoeste 0 -- -- 31
2020-01-07 16:00:00 15.8 3 Sudoeste 9 Oeste 0 -- -- 28
2020-01-07 15:00:00 15 4 Oeste 14 Sudoeste 0 -- -- 29
2020-01-07 14:00:00 13.2 5 Sudoeste 12 Sudoeste 0 -- -- 32
2020-01-07 13:00:00 10.1 4 Sudoeste 8 Sudoeste 0 -- -- 42
2020-01-07 12:00:00 6.5 0 Calma 6 Sudoeste 0 -- -- 50
2020-01-07 11:00:00 4.2 2 Sudoeste 6 Oeste 0 -- -- 59
2020-01-07 10:00:00 -0.5 3 Sur 6 Sudeste 0 -- -- 75
2020-01-07 09:00:00 -1.7 0 Calma 6 Sudeste 0 -- -- 80
2020-01-07 08:00:00 -1.3 0 Calma 6 Sudeste 0 -- -- 76
2020-01-07 07:00:00 -1 3 Sudeste 6 Sudeste 0 -- -- 77
2020-01-07 06:00:00 -1.2 3 Sur 8 Sudeste 0 -- -- 78
2020-01-07 05:00:00 -1.7 2 Este 5 Noroeste 0 -- -- 78
2020-01-07 04:00:00 -2.2 0 Calma 4 Sudeste 0 -- -- 78
2020-01-07 03:00:00 -1.4 3 Sudeste 5 Sudeste 0 -- -- 77
2020-01-07 02:00:00 -0.7 0 Calma 6 Noroeste 0 -- -- 73
2020-01-07 01:00:00 -0.7 0 Calma 4 Este 0 -- -- 72
2020-01-07 00:00:00 -0.2 0 Calma 4 Noroeste 0 -- -- 70
2020-01-06 23:00:00 0.8 2 Sur 5 Sudeste 0 -- -- 67
2020-01-06 22:00:00 2.4 0 Calma 7 Sudeste 0 -- -- 60
2020-01-06 21:00:00 4 2 Sudeste 6 Noroeste 0 -- -- 55
2020-01-06 20:00:00 5.6 2 Norte 5 Noroeste 0 -- -- 54
2020-01-06 19:00:00 8.1 0 Calma 2 Noroeste 0 -- -- 46
2020-01-06 18:00:00 11.8 2 Norte 7 Norte 0 -- -- 38
2020-01-06 17:00:00 14 3 Oeste 10 Oeste 0 -- -- 32
2020-01-06 16:00:00 15.8 6 Sudoeste 23 Oeste 0 -- -- 29
2020-01-06 15:00:00 16 8 Oeste 18 Oeste 0 -- -- 27
2020-01-06 14:00:00 15 7 Oeste 17 Oeste 0 -- -- 29
2020-01-06 13:00:00 10.5 3 Oeste 8 Oeste 0 -- -- 47
2020-01-06 12:00:00 6.4 0 Calma 3 Sudeste 0 -- -- 58
2020-01-06 11:00:00 3.6 0 Calma 5 Sur 0 -- -- 69
2020-01-06 10:00:00 -0.6 0 Calma 5 Sudoeste 0 -- -- 80